createdAt,value
2019-06-27T00:00:09.057Z,8.80
2019-06-27T00:10:11.321Z,9.43
2019-06-27T00:20:13.685Z,8.87
2019-06-27T00:30:15.411Z,9.60
2019-06-27T00:40:17.041Z,8.70
2019-06-27T00:50:19.690Z,8.47
2019-06-27T01:00:21.318Z,8.90
2019-06-27T01:10:22.927Z,8.70
2019-06-27T01:20:24.375Z,8.87
2019-06-27T01:30:26.101Z,8.30
2019-06-27T01:40:27.740Z,9.90
2019-06-27T01:50:29.272Z,8.60
2019-06-27T02:00:31.002Z,9.27
2019-06-27T02:10:33.523Z,9.83
2019-06-27T02:20:35.073Z,10.17
2019-06-27T02:30:41.039Z,11.30
2019-06-27T02:40:42.475Z,10.77
2019-06-27T02:50:43.906Z,10.50
2019-06-27T03:00:45.533Z,12.60
2019-06-27T03:10:47.067Z,12.47
2019-06-27T03:20:48.501Z,10.63
2019-06-27T03:30:50.153Z,10.90
2019-06-27T03:40:51.682Z,10.97
2019-06-27T03:50:56.103Z,9.50
2019-06-27T04:00:56.488Z,11.20
2019-06-27T04:10:59.045Z,11.97
2019-06-27T04:21:11.137Z,11.23
2019-06-27T04:31:24.829Z,13.33
2019-06-27T04:41:28.229Z,11.87
2019-06-27T04:51:29.742Z,10.80
2019-06-27T05:01:31.278Z,10.10
2019-06-27T05:11:32.807Z,10.33
2019-06-27T05:21:34.249Z,9.93
2019-06-27T05:31:35.801Z,9.47
2019-06-27T05:41:37.340Z,7.93
2019-06-27T05:51:38.759Z,8.00
2019-06-27T06:01:40.285Z,7.05
2019-06-27T06:11:41.804Z,7.35
2019-06-27T06:21:44.430Z,7.20
2019-06-27T06:31:49.104Z,8.15
2019-06-27T06:41:49.235Z,10.05
2019-06-27T06:51:50.783Z,12.25
2019-06-27T07:01:53.425Z,11.33
2019-06-27T07:11:54.844Z,11.28
2019-06-27T07:21:56.363Z,11.18
2019-06-27T07:31:57.823Z,11.60
2019-06-27T07:41:59.241Z,10.63
2019-06-27T07:52:00.758Z,10.60
2019-06-27T08:02:02.489Z,11.85
2019-06-27T08:12:04.130Z,12.20
2019-06-27T08:22:05.555Z,12.88
2019-06-27T08:32:07.223Z,13.13
2019-06-27T08:42:08.658Z,11.83
2019-06-27T08:52:10.090Z,11.12
2019-06-27T09:02:11.532Z,11.18
2019-06-27T09:12:13.043Z,11.33
2019-06-27T09:22:14.448Z,11.18
2019-06-27T09:32:25.336Z,10.53
2019-06-27T09:42:21.437Z,10.63
2019-06-27T09:52:22.891Z,10.60
2019-06-27T10:02:37.458Z,9.65
2019-06-27T10:12:41.302Z,9.80
2019-06-27T10:22:31.532Z,9.95
2019-06-27T10:32:32.992Z,8.75
2019-06-27T10:42:34.427Z,7.87
2019-06-27T10:52:35.981Z,8.03
2019-06-27T11:02:37.612Z,7.72
2019-06-27T11:12:39.228Z,7.70
2019-06-27T11:22:40.666Z,8.28
2019-06-27T11:32:42.240Z,8.35
2019-06-27T11:42:43.696Z,8.25
2019-06-27T11:52:47.210Z,8.33
2019-06-27T12:02:48.571Z,8.73
2019-06-27T12:12:50.996Z,8.95
2019-06-27T12:22:52.612Z,8.80
2019-06-27T12:32:54.073Z,9.70
2019-06-27T12:42:55.533Z,9.70
2019-06-27T12:52:56.974Z,9.65
2019-06-27T13:02:58.528Z,9.63
2019-06-27T13:12:59.942Z,8.88
2019-06-27T13:23:01.425Z,9.15
2019-06-27T13:33:03.626Z,8.60
2019-06-27T13:43:05.148Z,11.85
2019-06-27T13:53:06.664Z,8.25
2019-06-27T14:03:08.229Z,8.35
2019-06-27T14:13:09.637Z,9.10
2019-06-27T14:23:11.184Z,7.15
2019-06-27T14:33:12.777Z,8.55
2019-06-27T14:43:14.319Z,8.80
2019-06-27T14:53:15.761Z,8.70
2019-06-27T15:03:17.235Z,8.90
2019-06-27T15:13:18.754Z,9.28
2019-06-27T15:23:20.313Z,9.78
2019-06-27T15:33:21.910Z,10.32
2019-06-27T15:43:23.345Z,10.60
2019-06-27T15:53:24.780Z,10.55
2019-06-27T16:03:26.255Z,11.38
2019-06-27T16:13:27.666Z,10.43
2019-06-27T16:23:30.795Z,10.70
2019-06-27T16:33:32.306Z,10.72
2019-06-27T16:43:33.791Z,11.45
2019-06-27T16:53:35.209Z,11.93
2019-06-27T17:03:36.769Z,11.88
2019-06-27T17:13:38.299Z,11.40
2019-06-27T17:23:39.752Z,11.50
2019-06-27T17:33:41.352Z,12.35
2019-06-27T17:43:42.809Z,12.20
2019-06-27T17:53:44.347Z,11.20
2019-06-27T18:03:45.811Z,12.43
2019-06-27T18:13:47.285Z,11.45
2019-06-27T18:23:48.689Z,11.48
2019-06-27T18:33:50.248Z,11.18
2019-06-27T18:43:51.873Z,11.75
2019-06-27T18:53:53.392Z,10.50
2019-06-27T19:03:54.877Z,10.90
2019-06-27T19:13:56.943Z,10.72
2019-06-27T19:23:58.469Z,10.17
2019-06-27T19:33:59.933Z,10.53
2019-06-27T19:44:01.601Z,9.37
2019-06-27T19:54:03.541Z,10.00
2019-06-27T20:04:05.287Z,10.20
2019-06-27T20:14:06.826Z,9.40
2019-06-27T20:24:08.263Z,8.27
2019-06-27T20:34:09.708Z,8.17
2019-06-27T20:44:11.281Z,7.53
2019-06-27T20:54:12.717Z,6.93
2019-06-27T21:04:14.285Z,6.80
2019-06-27T21:14:15.917Z,7.50
2019-06-27T21:24:17.374Z,6.50
2019-06-27T21:34:18.797Z,6.40
2019-06-27T21:44:20.281Z,6.57
2019-06-27T21:54:21.739Z,4.70
2019-06-27T22:04:23.162Z,4.80
2019-06-27T22:14:24.698Z,5.43
2019-06-27T22:24:26.256Z,5.80
2019-06-27T22:34:28.686Z,6.13
2019-06-27T22:44:48.696Z,5.23
2019-06-27T22:54:52.123Z,5.07
2019-06-27T23:04:53.545Z,4.73
2019-06-27T23:14:56.089Z,4.10
2019-06-27T23:24:57.618Z,4.27
2019-06-27T23:34:59.044Z,4.23
2019-06-27T23:45:00.510Z,4.17
2019-06-27T23:55:02.825Z,3.83
